sensor_id;sensor_type;location;lat;lon;timestamp;P1;durP1;ratioP1;P2;durP2;ratioP2
20449;SDS011;10384;51.940;8.432;2023-04-25T00:00:30;10.37;;;2.97;;
20449;SDS011;10384;51.940;8.432;2023-04-25T00:02:56;13.03;;;3.20;;
20449;SDS011;10384;51.940;8.432;2023-04-25T00:05:24;10.77;;;3.17;;
20449;SDS011;10384;51.940;8.432;2023-04-25T00:07:50;9.83;;;2.83;;
20449;SDS011;10384;51.940;8.432;2023-04-25T00:10:17;6.00;;;2.53;;
20449;SDS011;10384;51.940;8.432;2023-04-25T00:12:43;8.93;;;3.53;;
20449;SDS011;10384;51.940;8.432;2023-04-25T00:15:09;11.80;;;3.10;;
20449;SDS011;10384;51.940;8.432;2023-04-25T00:17:35;7.43;;;2.77;;
20449;SDS011;10384;51.940;8.432;2023-04-25T00:20:03;10.87;;;3.17;;
20449;SDS011;10384;51.940;8.432;2023-04-25T00:22:30;12.00;;;3.10;;
20449;SDS011;10384;51.940;8.432;2023-04-25T00:24:56;9.80;;;2.87;;
20449;SDS011;10384;51.940;8.432;2023-04-25T00:27:25;13.30;;;3.53;;
20449;SDS011;10384;51.940;8.432;2023-04-25T00:29:51;10.57;;;3.47;;
20449;SDS011;10384;51.940;8.432;2023-04-25T00:32:16;9.77;;;2.90;;
20449;SDS011;10384;51.940;8.432;2023-04-25T00:34:42;11.60;;;3.57;;
20449;SDS011;10384;51.940;8.432;2023-04-25T00:37:08;10.47;;;3.13;;
20449;SDS011;10384;51.940;8.432;2023-04-25T00:39:35;9.87;;;3.03;;
20449;SDS011;10384;51.940;8.432;2023-04-25T00:42:01;12.50;;;3.17;;
20449;SDS011;10384;51.940;8.432;2023-04-25T00:44:29;17.07;;;3.17;;
20449;SDS011;10384;51.940;8.432;2023-04-25T00:46:55;11.73;;;3.30;;
20449;SDS011;10384;51.940;8.432;2023-04-25T00:49:21;11.30;;;3.13;;
20449;SDS011;10384;51.940;8.432;2023-04-25T00:51:47;13.37;;;3.50;;
20449;SDS011;10384;51.940;8.432;2023-04-25T00:54:13;12.10;;;3.43;;
20449;SDS011;10384;51.940;8.432;2023-04-25T00:56:40;10.47;;;3.13;;
20449;SDS011;10384;51.940;8.432;2023-04-25T00:59:07;13.27;;;3.77;;
20449;SDS011;10384;51.940;8.432;2023-04-25T01:01:33;8.73;;;2.97;;
20449;SDS011;10384;51.940;8.432;2023-04-25T01:04:00;9.53;;;3.00;;
20449;SDS011;10384;51.940;8.432;2023-04-25T01:06:26;11.33;;;3.30;;
20449;SDS011;10384;51.940;8.432;2023-04-25T01:08:53;12.40;;;3.50;;
20449;SDS011;10384;51.940;8.432;2023-04-25T01:11:19;9.57;;;3.37;;
20449;SDS011;10384;51.940;8.432;2023-04-25T01:13:45;11.27;;;3.07;;
20449;SDS011;10384;51.940;8.432;2023-04-25T01:16:11;17.00;;;4.00;;
20449;SDS011;10384;51.940;8.432;2023-04-25T01:18:40;12.03;;;3.60;;
20449;SDS011;10384;51.940;8.432;2023-04-25T01:21:10;10.73;;;3.93;;
20449;SDS011;10384;51.940;8.432;2023-04-25T01:23:38;12.33;;;3.67;;
20449;SDS011;10384;51.940;8.432;2023-04-25T01:26:04;9.97;;;3.40;;
20449;SDS011;10384;51.940;8.432;2023-04-25T01:28:32;12.30;;;4.03;;
20449;SDS011;10384;51.940;8.432;2023-04-25T01:30:58;10.77;;;3.70;;
20449;SDS011;10384;51.940;8.432;2023-04-25T01:33:24;15.77;;;4.10;;
20449;SDS011;10384;51.940;8.432;2023-04-25T01:35:50;15.07;;;4.10;;
20449;SDS011;10384;51.940;8.432;2023-04-25T01:38:17;13.00;;;3.53;;
20449;SDS011;10384;51.940;8.432;2023-04-25T01:40:43;11.53;;;3.57;;
20449;SDS011;10384;51.940;8.432;2023-04-25T01:43:10;14.23;;;3.63;;
20449;SDS011;10384;51.940;8.432;2023-04-25T01:45:40;12.77;;;3.43;;
20449;SDS011;10384;51.940;8.432;2023-04-25T01:48:07;10.23;;;4.23;;
20449;SDS011;10384;51.940;8.432;2023-04-25T01:50:33;8.83;;;3.60;;
20449;SDS011;10384;51.940;8.432;2023-04-25T01:52:59;13.90;;;3.97;;
20449;SDS011;10384;51.940;8.432;2023-04-25T01:55:26;10.40;;;3.80;;
20449;SDS011;10384;51.940;8.432;2023-04-25T01:57:52;8.37;;;3.40;;
20449;SDS011;10384;51.940;8.432;2023-04-25T02:00:18;10.40;;;3.87;;
20449;SDS011;10384;51.940;8.432;2023-04-25T02:02:45;10.57;;;3.20;;
20449;SDS011;10384;51.940;8.432;2023-04-25T02:05:11;11.67;;;3.43;;
20449;SDS011;10384;51.940;8.432;2023-04-25T02:07:37;12.67;;;3.47;;
20449;SDS011;10384;51.940;8.432;2023-04-25T02:10:03;16.27;;;3.97;;
20449;SDS011;10384;51.940;8.432;2023-04-25T02:12:30;11.23;;;3.10;;
20449;SDS011;10384;51.940;8.432;2023-04-25T02:14:56;11.63;;;3.70;;
20449;SDS011;10384;51.940;8.432;2023-04-25T02:17:22;11.90;;;3.70;;
20449;SDS011;10384;51.940;8.432;2023-04-25T02:19:48;8.50;;;3.83;;
20449;SDS011;10384;51.940;8.432;2023-04-25T02:22:15;12.70;;;3.93;;
20449;SDS011;10384;51.940;8.432;2023-04-25T02:24:41;10.87;;;3.60;;
20449;SDS011;10384;51.940;8.432;2023-04-25T02:27:07;10.33;;;3.60;;
20449;SDS011;10384;51.940;8.432;2023-04-25T02:29:33;9.23;;;3.57;;
20449;SDS011;10384;51.940;8.432;2023-04-25T02:31:59;10.60;;;3.73;;
20449;SDS011;10384;51.940;8.432;2023-04-25T02:34:25;13.47;;;4.23;;
20449;SDS011;10384;51.940;8.432;2023-04-25T02:36:51;8.23;;;3.87;;
20449;SDS011;10384;51.940;8.432;2023-04-25T02:39:17;12.63;;;3.63;;
20449;SDS011;10384;51.940;8.432;2023-04-25T02:41:43;14.60;;;3.77;;
20449;SDS011;10384;51.940;8.432;2023-04-25T02:44:09;10.47;;;3.33;;
20449;SDS011;10384;51.940;8.432;2023-04-25T02:46:35;11.07;;;3.97;;
20449;SDS011;10384;51.940;8.432;2023-04-25T02:49:01;10.13;;;3.40;;
20449;SDS011;10384;51.940;8.432;2023-04-25T02:51:27;9.83;;;3.67;;
20449;SDS011;10384;51.940;8.432;2023-04-25T02:53:53;8.70;;;4.00;;
20449;SDS011;10384;51.940;8.432;2023-04-25T02:56:19;14.07;;;3.83;;
20449;SDS011;10384;51.940;8.432;2023-04-25T02:58:45;9.30;;;3.80;;
20449;SDS011;10384;51.940;8.432;2023-04-25T03:01:11;12.47;;;4.13;;
20449;SDS011;10384;51.940;8.432;2023-04-25T03:03:37;10.63;;;3.57;;
20449;SDS011;10384;51.940;8.432;2023-04-25T03:06:03;8.20;;;4.50;;
20449;SDS011;10384;51.940;8.432;2023-04-25T03:08:29;7.27;;;3.07;;
20449;SDS011;10384;51.940;8.432;2023-04-25T03:10:57;9.53;;;2.90;;
20449;SDS011;10384;51.940;8.432;2023-04-25T03:13:24;13.90;;;3.17;;
20449;SDS011;10384;51.940;8.432;2023-04-25T03:15:50;8.27;;;2.80;;
20449;SDS011;10384;51.940;8.432;2023-04-25T03:18:16;9.17;;;2.60;;
20449;SDS011;10384;51.940;8.432;2023-04-25T03:20:42;11.80;;;2.73;;
20449;SDS011;10384;51.940;8.432;2023-04-25T03:23:08;8.07;;;2.43;;
20449;SDS011;10384;51.940;8.432;2023-04-25T03:25:34;11.77;;;2.70;;
20449;SDS011;10384;51.940;8.432;2023-04-25T03:28:00;8.33;;;2.57;;
20449;SDS011;10384;51.940;8.432;2023-04-25T03:30:26;11.10;;;3.20;;
20449;SDS011;10384;51.940;8.432;2023-04-25T03:32:52;12.20;;;3.20;;
20449;SDS011;10384;51.940;8.432;2023-04-25T03:35:18;8.27;;;2.83;;
20449;SDS011;10384;51.940;8.432;2023-04-25T03:37:44;8.67;;;2.20;;
20449;SDS011;10384;51.940;8.432;2023-04-25T03:40:10;9.40;;;2.90;;
20449;SDS011;10384;51.940;8.432;2023-04-25T03:42:36;10.27;;;2.23;;
20449;SDS011;10384;51.940;8.432;2023-04-25T03:45:02;9.87;;;2.77;;
20449;SDS011;10384;51.940;8.432;2023-04-25T03:47:28;10.43;;;2.83;;
20449;SDS011;10384;51.940;8.432;2023-04-25T03:49:54;8.20;;;2.60;;
20449;SDS011;10384;51.940;8.432;2023-04-25T03:52:20;12.07;;;2.63;;
20449;SDS011;10384;51.940;8.432;2023-04-25T03:54:46;11.37;;;2.40;;
20449;SDS011;10384;51.940;8.432;2023-04-25T03:57:12;7.43;;;2.53;;
20449;SDS011;10384;51.940;8.432;2023-04-25T03:59:38;7.97;;;2.80;;
20449;SDS011;10384;51.940;8.432;2023-04-25T04:02:04;8.20;;;2.57;;
20449;SDS011;10384;51.940;8.432;2023-04-25T04:04:30;10.87;;;2.53;;
20449;SDS011;10384;51.940;8.432;2023-04-25T04:06:56;13.63;;;3.17;;
20449;SDS011;10384;51.940;8.432;2023-04-25T04:09:22;10.87;;;3.10;;
20449;SDS011;10384;51.940;8.432;2023-04-25T04:11:48;9.93;;;3.70;;
20449;SDS011;10384;51.940;8.432;2023-04-25T04:14:14;8.77;;;2.67;;
20449;SDS011;10384;51.940;8.432;2023-04-25T04:16:40;9.93;;;3.53;;
20449;SDS011;10384;51.940;8.432;2023-04-25T04:19:06;10.43;;;2.97;;
20449;SDS011;10384;51.940;8.432;2023-04-25T04:21:32;11.37;;;3.10;;
20449;SDS011;10384;51.940;8.432;2023-04-25T04:23:58;12.17;;;2.87;;
20449;SDS011;10384;51.940;8.432;2023-04-25T04:26:25;10.20;;;2.90;;
20449;SDS011;10384;51.940;8.432;2023-04-25T04:28:51;12.27;;;2.80;;
20449;SDS011;10384;51.940;8.432;2023-04-25T04:31:19;15.60;;;3.27;;
20449;SDS011;10384;51.940;8.432;2023-04-25T04:33:46;9.80;;;2.70;;
20449;SDS011;10384;51.940;8.432;2023-04-25T04:36:12;14.83;;;3.50;;
20449;SDS011;10384;51.940;8.432;2023-04-25T04:38:38;12.70;;;3.00;;
20449;SDS011;10384;51.940;8.432;2023-04-25T04:41:06;10.70;;;3.00;;
20449;SDS011;10384;51.940;8.432;2023-04-25T04:43:32;14.03;;;3.27;;
20449;SDS011;10384;51.940;8.432;2023-04-25T04:45:58;13.80;;;3.03;;
20449;SDS011;10384;51.940;8.432;2023-04-25T04:48:24;8.40;;;3.17;;
20449;SDS011;10384;51.940;8.432;2023-04-25T04:50:51;12.80;;;3.23;;
20449;SDS011;10384;51.940;8.432;2023-04-25T04:53:17;11.50;;;3.20;;
20449;SDS011;10384;51.940;8.432;2023-04-25T04:55:43;14.83;;;3.30;;
20449;SDS011;10384;51.940;8.432;2023-04-25T04:58:09;7.93;;;2.80;;
20449;SDS011;10384;51.940;8.432;2023-04-25T05:00:35;15.13;;;3.17;;
20449;SDS011;10384;51.940;8.432;2023-04-25T05:03:01;10.77;;;2.67;;
20449;SDS011;10384;51.940;8.432;2023-04-25T05:05:27;13.73;;;4.00;;
20449;SDS011;10384;51.940;8.432;2023-04-25T05:07:53;11.53;;;3.23;;
20449;SDS011;10384;51.940;8.432;2023-04-25T05:10:19;9.20;;;3.03;;
20449;SDS011;10384;51.940;8.432;2023-04-25T05:12:45;10.40;;;3.40;;
20449;SDS011;10384;51.940;8.432;2023-04-25T05:15:11;11.13;;;3.07;;
20449;SDS011;10384;51.940;8.432;2023-04-25T05:17:37;18.83;;;3.90;;
20449;SDS011;10384;51.940;8.432;2023-04-25T05:20:04;13.70;;;3.17;;
20449;SDS011;10384;51.940;8.432;2023-04-25T05:22:30;18.73;;;3.27;;
20449;SDS011;10384;51.940;8.432;2023-04-25T05:24:56;13.73;;;3.30;;
20449;SDS011;10384;51.940;8.432;2023-04-25T05:27:23;14.90;;;3.33;;
20449;SDS011;10384;51.940;8.432;2023-04-25T05:29:49;11.27;;;3.23;;
20449;SDS011;10384;51.940;8.432;2023-04-25T05:32:16;11.83;;;3.30;;
20449;SDS011;10384;51.940;8.432;2023-04-25T05:34:42;12.97;;;3.60;;
20449;SDS011;10384;51.940;8.432;2023-04-25T05:37:08;13.83;;;3.43;;
20449;SDS011;10384;51.940;8.432;2023-04-25T05:39:34;12.83;;;3.13;;
20449;SDS011;10384;51.940;8.432;2023-04-25T05:42:00;15.07;;;2.80;;
20449;SDS011;10384;51.940;8.432;2023-04-25T05:44:26;13.77;;;2.83;;
20449;SDS011;10384;51.940;8.432;2023-04-25T05:46:52;9.93;;;3.17;;
20449;SDS011;10384;51.940;8.432;2023-04-25T05:49:18;13.77;;;2.90;;
20449;SDS011;10384;51.940;8.432;2023-04-25T05:51:44;14.00;;;3.17;;
20449;SDS011;10384;51.940;8.432;2023-04-25T05:54:10;9.47;;;2.90;;
20449;SDS011;10384;51.940;8.432;2023-04-25T05:56:36;19.77;;;3.70;;
20449;SDS011;10384;51.940;8.432;2023-04-25T05:59:02;15.00;;;3.37;;
20449;SDS011;10384;51.940;8.432;2023-04-25T06:01:28;14.77;;;3.93;;
20449;SDS011;10384;51.940;8.432;2023-04-25T06:03:55;10.33;;;2.87;;
20449;SDS011;10384;51.940;8.432;2023-04-25T06:06:21;13.23;;;3.47;;
20449;SDS011;10384;51.940;8.432;2023-04-25T06:08:47;12.07;;;2.93;;
20449;SDS011;10384;51.940;8.432;2023-04-25T06:11:13;22.37;;;3.40;;
20449;SDS011;10384;51.940;8.432;2023-04-25T06:13:39;17.37;;;3.03;;
20449;SDS011;10384;51.940;8.432;2023-04-25T06:16:05;13.47;;;2.90;;
20449;SDS011;10384;51.940;8.432;2023-04-25T06:18:31;19.60;;;3.47;;
20449;SDS011;10384;51.940;8.432;2023-04-25T06:20:57;9.87;;;2.70;;
20449;SDS011;10384;51.940;8.432;2023-04-25T06:23:23;15.77;;;3.57;;
20449;SDS011;10384;51.940;8.432;2023-04-25T06:25:49;18.37;;;3.70;;
20449;SDS011;10384;51.940;8.432;2023-04-25T06:28:15;9.93;;;2.97;;
20449;SDS011;10384;51.940;8.432;2023-04-25T06:30:41;15.37;;;2.83;;
20449;SDS011;10384;51.940;8.432;2023-04-25T06:33:07;9.23;;;2.90;;
20449;SDS011;10384;51.940;8.432;2023-04-25T06:35:33;15.13;;;3.63;;
20449;SDS011;10384;51.940;8.432;2023-04-25T06:37:59;17.40;;;4.53;;
20449;SDS011;10384;51.940;8.432;2023-04-25T06:40:27;12.23;;;3.03;;
20449;SDS011;10384;51.940;8.432;2023-04-25T06:42:52;11.53;;;2.77;;
20449;SDS011;10384;51.940;8.432;2023-04-25T06:45:18;11.33;;;2.33;;
20449;SDS011;10384;51.940;8.432;2023-04-25T06:47:44;9.80;;;2.37;;
20449;SDS011;10384;51.940;8.432;2023-04-25T06:50:10;9.20;;;2.63;;
20449;SDS011;10384;51.940;8.432;2023-04-25T06:52:36;5.57;;;2.00;;
20449;SDS011;10384;51.940;8.432;2023-04-25T06:55:02;12.53;;;2.50;;
20449;SDS011;10384;51.940;8.432;2023-04-25T06:57:29;7.03;;;2.10;;
20449;SDS011;10384;51.940;8.432;2023-04-25T06:59:56;11.57;;;2.40;;
20449;SDS011;10384;51.940;8.432;2023-04-25T07:02:21;14.20;;;2.67;;
20449;SDS011;10384;51.940;8.432;2023-04-25T07:04:47;12.80;;;2.23;;
20449;SDS011;10384;51.940;8.432;2023-04-25T07:07:13;9.27;;;2.33;;
20449;SDS011;10384;51.940;8.432;2023-04-25T07:09:39;15.23;;;2.70;;
20449;SDS011;10384;51.940;8.432;2023-04-25T07:12:05;9.53;;;2.23;;
20449;SDS011;10384;51.940;8.432;2023-04-25T07:14:31;15.83;;;3.43;;
20449;SDS011;10384;51.940;8.432;2023-04-25T07:16:57;8.93;;;2.67;;
20449;SDS011;10384;51.940;8.432;2023-04-25T07:19:23;8.30;;;2.10;;
20449;SDS011;10384;51.940;8.432;2023-04-25T07:21:51;15.33;;;2.90;;
20449;SDS011;10384;51.940;8.432;2023-04-25T07:24:17;12.77;;;2.03;;
20449;SDS011;10384;51.940;8.432;2023-04-25T07:26:43;10.97;;;2.40;;
20449;SDS011;10384;51.940;8.432;2023-04-25T07:29:09;10.90;;;2.20;;
20449;SDS011;10384;51.940;8.432;2023-04-25T07:31:35;10.70;;;2.17;;
20449;SDS011;10384;51.940;8.432;2023-04-25T07:34:01;10.77;;;2.43;;
20449;SDS011;10384;51.940;8.432;2023-04-25T07:36:27;8.57;;;1.97;;
20449;SDS011;10384;51.940;8.432;2023-04-25T07:38:53;10.10;;;2.47;;
20449;SDS011;10384;51.940;8.432;2023-04-25T07:41:19;10.70;;;2.40;;
20449;SDS011;10384;51.940;8.432;2023-04-25T07:43:45;9.30;;;2.60;;
20449;SDS011;10384;51.940;8.432;2023-04-25T07:46:11;8.27;;;1.90;;
20449;SDS011;10384;51.940;8.432;2023-04-25T07:48:37;9.93;;;2.10;;
20449;SDS011;10384;51.940;8.432;2023-04-25T07:51:03;7.30;;;2.13;;
20449;SDS011;10384;51.940;8.432;2023-04-25T07:53:30;7.70;;;1.90;;
20449;SDS011;10384;51.940;8.432;2023-04-25T07:55:57;6.10;;;1.83;;
20449;SDS011;10384;51.940;8.432;2023-04-25T07:58:22;11.03;;;2.33;;
20449;SDS011;10384;51.940;8.432;2023-04-25T08:00:48;7.53;;;1.83;;
20449;SDS011;10384;51.940;8.432;2023-04-25T08:03:14;8.67;;;2.00;;
20449;SDS011;10384;51.940;8.432;2023-04-25T08:05:40;8.03;;;1.57;;
20449;SDS011;10384;51.940;8.432;2023-04-25T08:08:06;6.93;;;2.13;;
20449;SDS011;10384;51.940;8.432;2023-04-25T08:10:33;10.43;;;2.00;;
20449;SDS011;10384;51.940;8.432;2023-04-25T08:12:59;8.87;;;1.73;;
20449;SDS011;10384;51.940;8.432;2023-04-25T08:15:25;12.47;;;1.80;;
20449;SDS011;10384;51.940;8.432;2023-04-25T08:17:51;7.47;;;1.80;;
20449;SDS011;10384;51.940;8.432;2023-04-25T08:20:17;9.87;;;2.20;;
20449;SDS011;10384;51.940;8.432;2023-04-25T08:22:43;7.67;;;2.30;;
20449;SDS011;10384;51.940;8.432;2023-04-25T08:25:09;9.43;;;1.87;;
20449;SDS011;10384;51.940;8.432;2023-04-25T08:27:35;12.00;;;1.80;;
20449;SDS011;10384;51.940;8.432;2023-04-25T08:30:02;10.43;;;1.63;;
20449;SDS011;10384;51.940;8.432;2023-04-25T08:32:28;9.50;;;1.47;;
20449;SDS011;10384;51.940;8.432;2023-04-25T08:34:55;6.83;;;1.57;;
20449;SDS011;10384;51.940;8.432;2023-04-25T08:37:21;9.53;;;1.70;;
20449;SDS011;10384;51.940;8.432;2023-04-25T08:39:47;9.00;;;1.70;;
20449;SDS011;10384;51.940;8.432;2023-04-25T08:42:15;7.63;;;1.90;;
20449;SDS011;10384;51.940;8.432;2023-04-25T08:44:41;11.53;;;1.70;;
20449;SDS011;10384;51.940;8.432;2023-04-25T08:47:07;8.87;;;1.90;;
20449;SDS011;10384;51.940;8.432;2023-04-25T08:49:33;11.03;;;1.97;;
20449;SDS011;10384;51.940;8.432;2023-04-25T08:52:00;8.13;;;3.03;;
20449;SDS011;10384;51.940;8.432;2023-04-25T08:54:27;11.83;;;1.77;;
20449;SDS011;10384;51.940;8.432;2023-04-25T08:56:55;9.33;;;2.13;;
20449;SDS011;10384;51.940;8.432;2023-04-25T08:59:23;10.13;;;2.10;;
20449;SDS011;10384;51.940;8.432;2023-04-25T09:01:49;6.73;;;1.40;;
20449;SDS011;10384;51.940;8.432;2023-04-25T09:04:16;5.70;;;1.60;;
20449;SDS011;10384;51.940;8.432;2023-04-25T09:06:44;5.50;;;1.33;;
20449;SDS011;10384;51.940;8.432;2023-04-25T09:09:10;5.73;;;1.20;;
20449;SDS011;10384;51.940;8.432;2023-04-25T09:11:37;7.10;;;2.87;;
20449;SDS011;10384;51.940;8.432;2023-04-25T09:14:12;4.67;;;1.27;;
20449;SDS011;10384;51.940;8.432;2023-04-25T09:19:36;6.73;;;1.80;;
20449;SDS011;10384;51.940;8.432;2023-04-25T09:22:06;11.90;;;1.47;;
20449;SDS011;10384;51.940;8.432;2023-04-25T09:24:39;2.87;;;1.40;;
20449;SDS011;10384;51.940;8.432;2023-04-25T09:27:08;3.57;;;1.27;;
20449;SDS011;10384;51.940;8.432;2023-04-25T09:29:35;3.73;;;1.10;;
20449;SDS011;10384;51.940;8.432;2023-04-25T09:32:21;4.27;;;1.27;;
20449;SDS011;10384;51.940;8.432;2023-04-25T09:34:48;6.03;;;1.13;;
20449;SDS011;10384;51.940;8.432;2023-04-25T09:37:29;6.00;;;1.23;;
20449;SDS011;10384;51.940;8.432;2023-04-25T09:39:56;6.00;;;1.20;;
20449;SDS011;10384;51.940;8.432;2023-04-25T09:42:22;7.43;;;1.50;;
20449;SDS011;10384;51.940;8.432;2023-04-25T09:44:51;3.40;;;1.20;;
20449;SDS011;10384;51.940;8.432;2023-04-25T09:47:17;2.57;;;1.47;;
20449;SDS011;10384;51.940;8.432;2023-04-25T09:49:46;4.53;;;1.10;;
20449;SDS011;10384;51.940;8.432;2023-04-25T09:52:16;8.23;;;1.20;;
20449;SDS011;10384;51.940;8.432;2023-04-25T09:54:43;5.50;;;1.50;;
20449;SDS011;10384;51.940;8.432;2023-04-25T09:57:28;5.33;;;1.30;;
20449;SDS011;10384;51.940;8.432;2023-04-25T09:59:54;7.03;;;1.20;;
20449;SDS011;10384;51.940;8.432;2023-04-25T10:02:25;3.77;;;1.27;;
20449;SDS011;10384;51.940;8.432;2023-04-25T10:04:51;7.13;;;1.20;;
20449;SDS011;10384;51.940;8.432;2023-04-25T10:07:19;6.70;;;1.47;;
20449;SDS011;10384;51.940;8.432;2023-04-25T10:09:49;8.20;;;1.83;;
20449;SDS011;10384;51.940;8.432;2023-04-25T10:12:16;5.70;;;1.10;;
20449;SDS011;10384;51.940;8.432;2023-04-25T10:14:43;4.03;;;1.00;;
20449;SDS011;10384;51.940;8.432;2023-04-25T10:17:10;6.97;;;1.50;;
20449;SDS011;10384;51.940;8.432;2023-04-25T10:19:36;4.93;;;1.40;;
20449;SDS011;10384;51.940;8.432;2023-04-25T10:22:04;2.27;;;1.10;;
20449;SDS011;10384;51.940;8.432;2023-04-25T10:24:31;5.60;;;1.33;;
20449;SDS011;10384;51.940;8.432;2023-04-25T10:26:57;7.67;;;1.27;;
20449;SDS011;10384;51.940;8.432;2023-04-25T10:29:24;5.43;;;1.50;;
20449;SDS011;10384;51.940;8.432;2023-04-25T10:31:51;5.27;;;1.20;;
20449;SDS011;10384;51.940;8.432;2023-04-25T10:34:17;5.00;;;1.30;;
20449;SDS011;10384;51.940;8.432;2023-04-25T10:36:49;2.13;;;1.20;;
20449;SDS011;10384;51.940;8.432;2023-04-25T10:39:21;5.87;;;1.67;;
20449;SDS011;10384;51.940;8.432;2023-04-25T10:41:48;5.30;;;1.23;;
20449;SDS011;10384;51.940;8.432;2023-04-25T10:44:17;7.03;;;1.43;;
20449;SDS011;10384;51.940;8.432;2023-04-25T10:46:44;4.47;;;1.30;;
20449;SDS011;10384;51.940;8.432;2023-04-25T10:49:10;6.17;;;1.30;;
20449;SDS011;10384;51.940;8.432;2023-04-25T10:51:36;4.03;;;1.20;;
20449;SDS011;10384;51.940;8.432;2023-04-25T10:54:04;4.87;;;1.63;;
20449;SDS011;10384;51.940;8.432;2023-04-25T10:59:03;4.23;;;1.37;;
20449;SDS011;10384;51.940;8.432;2023-04-25T11:01:35;5.47;;;1.73;;
20449;SDS011;10384;51.940;8.432;2023-04-25T11:04:01;4.87;;;1.40;;
20449;SDS011;10384;51.940;8.432;2023-04-25T11:08:53;7.07;;;1.53;;
20449;SDS011;10384;51.940;8.432;2023-04-25T11:11:19;2.60;;;1.10;;
20449;SDS011;10384;51.940;8.432;2023-04-25T11:13:48;2.97;;;1.30;;
20449;SDS011;10384;51.940;8.432;2023-04-25T11:16:15;6.77;;;1.97;;
20449;SDS011;10384;51.940;8.432;2023-04-25T11:18:41;3.50;;;1.30;;
20449;SDS011;10384;51.940;8.432;2023-04-25T11:21:08;6.43;;;1.30;;
20449;SDS011;10384;51.940;8.432;2023-04-25T11:23:34;4.30;;;1.17;;
20449;SDS011;10384;51.940;8.432;2023-04-25T11:26:00;5.60;;;0.90;;
20449;SDS011;10384;51.940;8.432;2023-04-25T11:28:26;2.67;;;0.97;;
20449;SDS011;10384;51.940;8.432;2023-04-25T11:30:52;2.83;;;0.97;;
20449;SDS011;10384;51.940;8.432;2023-04-25T11:33:22;4.57;;;1.20;;
20449;SDS011;10384;51.940;8.432;2023-04-25T11:35:48;5.50;;;1.17;;
20449;SDS011;10384;51.940;8.432;2023-04-25T11:38:15;4.87;;;0.90;;
20449;SDS011;10384;51.940;8.432;2023-04-25T11:40:41;4.33;;;1.27;;
20449;SDS011;10384;51.940;8.432;2023-04-25T11:43:07;3.50;;;1.00;;
20449;SDS011;10384;51.940;8.432;2023-04-25T11:45:36;3.33;;;0.97;;
20449;SDS011;10384;51.940;8.432;2023-04-25T11:48:02;3.33;;;1.10;;
20449;SDS011;10384;51.940;8.432;2023-04-25T11:50:28;2.90;;;0.80;;
20449;SDS011;10384;51.940;8.432;2023-04-25T11:52:55;2.37;;;0.87;;
20449;SDS011;10384;51.940;8.432;2023-04-25T11:55:22;4.03;;;1.10;;
20449;SDS011;10384;51.940;8.432;2023-04-25T11:57:48;3.10;;;0.90;;
20449;SDS011;10384;51.940;8.432;2023-04-25T12:00:18;4.63;;;1.30;;
20449;SDS011;10384;51.940;8.432;2023-04-25T12:02:52;4.87;;;1.00;;
20449;SDS011;10384;51.940;8.432;2023-04-25T12:05:18;1.47;;;0.80;;
20449;SDS011;10384;51.940;8.432;2023-04-25T12:07:45;3.97;;;0.90;;
20449;SDS011;10384;51.940;8.432;2023-04-25T12:10:12;4.40;;;1.50;;
20449;SDS011;10384;51.940;8.432;2023-04-25T12:12:41;2.27;;;1.10;;
20449;SDS011;10384;51.940;8.432;2023-04-25T12:15:10;3.83;;;0.77;;
20449;SDS011;10384;51.940;8.432;2023-04-25T12:17:38;2.00;;;1.53;;
20449;SDS011;10384;51.940;8.432;2023-04-25T12:20:10;1.93;;;0.87;;
20449;SDS011;10384;51.940;8.432;2023-04-25T12:22:37;2.57;;;0.90;;
20449;SDS011;10384;51.940;8.432;2023-04-25T12:25:09;3.70;;;0.97;;
20449;SDS011;10384;51.940;8.432;2023-04-25T12:27:35;4.60;;;0.97;;
20449;SDS011;10384;51.940;8.432;2023-04-25T12:30:02;3.80;;;0.93;;
20449;SDS011;10384;51.940;8.432;2023-04-25T12:32:28;3.50;;;1.00;;
20449;SDS011;10384;51.940;8.432;2023-04-25T12:34:54;7.93;;;1.10;;
20449;SDS011;10384;51.940;8.432;2023-04-25T12:37:20;4.43;;;1.07;;
20449;SDS011;10384;51.940;8.432;2023-04-25T12:39:46;1.60;;;0.90;;
20449;SDS011;10384;51.940;8.432;2023-04-25T12:42:12;2.13;;;0.70;;
20449;SDS011;10384;51.940;8.432;2023-04-25T12:44:38;2.40;;;0.73;;
20449;SDS011;10384;51.940;8.432;2023-04-25T12:47:05;1.40;;;0.87;;
20449;SDS011;10384;51.940;8.432;2023-04-25T12:49:31;2.93;;;0.80;;
20449;SDS011;10384;51.940;8.432;2023-04-25T12:51:57;7.33;;;1.57;;
20449;SDS011;10384;51.940;8.432;2023-04-25T12:54:23;3.50;;;0.90;;
20449;SDS011;10384;51.940;8.432;2023-04-25T12:56:50;3.53;;;0.80;;
20449;SDS011;10384;51.940;8.432;2023-04-25T12:59:17;3.83;;;0.80;;
20449;SDS011;10384;51.940;8.432;2023-04-25T13:01:44;4.37;;;1.57;;
20449;SDS011;10384;51.940;8.432;2023-04-25T13:04:10;3.03;;;1.10;;
20449;SDS011;10384;51.940;8.432;2023-04-25T13:06:36;1.47;;;0.90;;
20449;SDS011;10384;51.940;8.432;2023-04-25T13:09:03;1.67;;;0.60;;
20449;SDS011;10384;51.940;8.432;2023-04-25T13:11:29;3.10;;;0.73;;
20449;SDS011;10384;51.940;8.432;2023-04-25T13:13:55;2.20;;;0.77;;
20449;SDS011;10384;51.940;8.432;2023-04-25T13:16:21;1.30;;;0.63;;
20449;SDS011;10384;51.940;8.432;2023-04-25T13:18:47;6.37;;;0.93;;
20449;SDS011;10384;51.940;8.432;2023-04-25T13:21:13;2.13;;;0.70;;
20449;SDS011;10384;51.940;8.432;2023-04-25T13:23:39;2.33;;;0.83;;
20449;SDS011;10384;51.940;8.432;2023-04-25T13:26:07;5.00;;;0.87;;
20449;SDS011;10384;51.940;8.432;2023-04-25T13:28:33;1.60;;;0.87;;
20449;SDS011;10384;51.940;8.432;2023-04-25T13:30:59;2.23;;;0.80;;
20449;SDS011;10384;51.940;8.432;2023-04-25T13:33:25;2.97;;;0.80;;
20449;SDS011;10384;51.940;8.432;2023-04-25T13:35:51;2.33;;;0.60;;
20449;SDS011;10384;51.940;8.432;2023-04-25T13:38:22;3.30;;;0.90;;
20449;SDS011;10384;51.940;8.432;2023-04-25T13:40:49;5.13;;;1.00;;
20449;SDS011;10384;51.940;8.432;2023-04-25T13:43:18;1.90;;;0.70;;
20449;SDS011;10384;51.940;8.432;2023-04-25T13:45:44;1.23;;;0.63;;
20449;SDS011;10384;51.940;8.432;2023-04-25T13:48:10;4.10;;;1.00;;
20449;SDS011;10384;51.940;8.432;2023-04-25T13:50:36;1.80;;;0.80;;
20449;SDS011;10384;51.940;8.432;2023-04-25T13:53:02;4.10;;;0.90;;
20449;SDS011;10384;51.940;8.432;2023-04-25T13:55:28;3.97;;;1.20;;
20449;SDS011;10384;51.940;8.432;2023-04-25T13:57:55;3.60;;;1.03;;
20449;SDS011;10384;51.940;8.432;2023-04-25T14:00:21;2.37;;;1.00;;
20449;SDS011;10384;51.940;8.432;2023-04-25T14:02:47;2.80;;;1.20;;
20449;SDS011;10384;51.940;8.432;2023-04-25T14:05:12;5.23;;;0.80;;
20449;SDS011;10384;51.940;8.432;2023-04-25T14:07:39;5.67;;;1.20;;
20449;SDS011;10384;51.940;8.432;2023-04-25T14:10:05;3.47;;;0.90;;
20449;SDS011;10384;51.940;8.432;2023-04-25T14:12:31;3.37;;;0.87;;
20449;SDS011;10384;51.940;8.432;2023-04-25T14:14:58;6.40;;;1.97;;
20449;SDS011;10384;51.940;8.432;2023-04-25T14:17:24;2.43;;;1.00;;
20449;SDS011;10384;51.940;8.432;2023-04-25T14:19:50;2.00;;;0.80;;
20449;SDS011;10384;51.940;8.432;2023-04-25T14:22:16;1.97;;;0.80;;
20449;SDS011;10384;51.940;8.432;2023-04-25T14:24:42;3.57;;;0.90;;
20449;SDS011;10384;51.940;8.432;2023-04-25T14:27:08;2.77;;;0.83;;
20449;SDS011;10384;51.940;8.432;2023-04-25T14:29:35;3.40;;;1.17;;
20449;SDS011;10384;51.940;8.432;2023-04-25T14:32:01;3.93;;;1.00;;
20449;SDS011;10384;51.940;8.432;2023-04-25T14:34:27;2.93;;;1.00;;
20449;SDS011;10384;51.940;8.432;2023-04-25T14:36:53;4.13;;;1.20;;
20449;SDS011;10384;51.940;8.432;2023-04-25T14:39:19;4.97;;;1.20;;
20449;SDS011;10384;51.940;8.432;2023-04-25T14:41:45;1.97;;;1.07;;
20449;SDS011;10384;51.940;8.432;2023-04-25T14:44:11;1.93;;;1.10;;
20449;SDS011;10384;51.940;8.432;2023-04-25T14:46:37;7.40;;;1.80;;